sensor_id;sensor_type;location;lat;lon;timestamp;temperature;humidity
1225;DHT22;602;48.000;7.840;2023-11-21T00:02:26;10.80;99.90
1225;DHT22;602;48.000;7.840;2023-11-21T00:04:53;10.80;99.90
1225;DHT22;602;48.000;7.840;2023-11-21T00:07:21;10.80;99.90
1225;DHT22;602;48.000;7.840;2023-11-21T00:09:48;10.80;99.90
1225;DHT22;602;48.000;7.840;2023-11-21T00:12:15;10.80;99.90
1225;DHT22;602;48.000;7.840;2023-11-21T00:14:42;10.70;99.90
1225;DHT22;602;48.000;7.840;2023-11-21T00:17:09;10.60;99.90
1225;DHT22;602;48.000;7.840;2023-11-21T00:19:36;10.70;99.90
1225;DHT22;602;48.000;7.840;2023-11-21T00:22:03;10.60;99.90
1225;DHT22;602;48.000;7.840;2023-11-21T00:24:31;10.60;99.90
1225;DHT22;602;48.000;7.840;2023-11-21T00:26:58;10.60;99.90
1225;DHT22;602;48.000;7.840;2023-11-21T00:29:25;10.60;99.90
1225;DHT22;602;48.000;7.840;2023-11-21T00:31:51;10.60;99.90
1225;DHT22;602;48.000;7.840;2023-11-21T00:34:19;10.60;99.90
1225;DHT22;602;48.000;7.840;2023-11-21T00:36:46;10.60;99.90
1225;DHT22;602;48.000;7.840;2023-11-21T00:39:12;10.50;99.90
1225;DHT22;602;48.000;7.840;2023-11-21T00:41:41;10.50;99.90
1225;DHT22;602;48.000;7.840;2023-11-21T00:44:07;10.50;99.90
1225;DHT22;602;48.000;7.840;2023-11-21T00:46:34;10.50;99.90
1225;DHT22;602;48.000;7.840;2023-11-21T00:49:01;10.60;99.90
1225;DHT22;602;48.000;7.840;2023-11-21T00:51:29;10.50;99.90
1225;DHT22;602;48.000;7.840;2023-11-21T00:53:56;10.60;99.90
1225;DHT22;602;48.000;7.840;2023-11-21T00:56:23;10.50;99.90
1225;DHT22;602;48.000;7.840;2023-11-21T00:58:51;10.50;99.90
1225;DHT22;602;48.000;7.840;2023-11-21T01:01:19;10.50;99.90
1225;DHT22;602;48.000;7.840;2023-11-21T01:03:46;10.50;99.90
1225;DHT22;602;48.000;7.840;2023-11-21T01:06:13;10.50;99.90
1225;DHT22;602;48.000;7.840;2023-11-21T01:08:40;10.40;99.90
1225;DHT22;602;48.000;7.840;2023-11-21T01:11:07;10.40;99.90
1225;DHT22;602;48.000;7.840;2023-11-21T01:13:36;10.40;99.90
1225;DHT22;602;48.000;7.840;2023-11-21T01:16:04;10.40;99.90
1225;DHT22;602;48.000;7.840;2023-11-21T01:18:32;10.50;99.90
1225;DHT22;602;48.000;7.840;2023-11-21T01:20:58;10.40;99.90
1225;DHT22;602;48.000;7.840;2023-11-21T01:23:26;10.40;99.90
1225;DHT22;602;48.000;7.840;2023-11-21T01:25:55;10.30;99.90
1225;DHT22;602;48.000;7.840;2023-11-21T01:28:22;10.40;99.90
1225;DHT22;602;48.000;7.840;2023-11-21T01:30:49;10.40;99.90
1225;DHT22;602;48.000;7.840;2023-11-21T01:33:18;10.40;99.90
1225;DHT22;602;48.000;7.840;2023-11-21T01:35:45;10.40;99.90
1225;DHT22;602;48.000;7.840;2023-11-21T01:38:11;10.40;99.90
1225;DHT22;602;48.000;7.840;2023-11-21T01:40:38;10.40;99.90
1225;DHT22;602;48.000;7.840;2023-11-21T01:43:05;10.30;99.90
1225;DHT22;602;48.000;7.840;2023-11-21T01:45:34;10.40;99.90
1225;DHT22;602;48.000;7.840;2023-11-21T01:48:01;10.40;99.90
1225;DHT22;602;48.000;7.840;2023-11-21T01:50:30;10.40;99.90
1225;DHT22;602;48.000;7.840;2023-11-21T01:52:57;10.40;99.90
1225;DHT22;602;48.000;7.840;2023-11-21T01:55:24;10.40;99.90
1225;DHT22;602;48.000;7.840;2023-11-21T01:57:53;10.40;99.90
1225;DHT22;602;48.000;7.840;2023-11-21T02:00:21;10.40;99.90
1225;DHT22;602;48.000;7.840;2023-11-21T02:02:49;10.40;99.90
1225;DHT22;602;48.000;7.840;2023-11-21T02:05:17;10.40;99.90
1225;DHT22;602;48.000;7.840;2023-11-21T02:07:46;10.40;99.90
1225;DHT22;602;48.000;7.840;2023-11-21T02:10:14;10.40;99.90
1225;DHT22;602;48.000;7.840;2023-11-21T02:12:42;10.40;99.90
1225;DHT22;602;48.000;7.840;2023-11-21T02:15:10;10.50;99.90
1225;DHT22;602;48.000;7.840;2023-11-21T02:17:45;10.50;99.90
1225;DHT22;602;48.000;7.840;2023-11-21T02:20:12;10.40;99.90
1225;DHT22;602;48.000;7.840;2023-11-21T02:22:41;10.40;99.90
1225;DHT22;602;48.000;7.840;2023-11-21T02:25:10;10.40;99.90
1225;DHT22;602;48.000;7.840;2023-11-21T02:27:37;10.40;99.90
1225;DHT22;602;48.000;7.840;2023-11-21T02:30:05;10.40;99.90
1225;DHT22;602;48.000;7.840;2023-11-21T02:32:33;10.50;99.90
1225;DHT22;602;48.000;7.840;2023-11-21T02:35:00;10.50;99.90
1225;DHT22;602;48.000;7.840;2023-11-21T02:37:33;10.60;99.90
1225;DHT22;602;48.000;7.840;2023-11-21T02:40:00;10.60;99.90
1225;DHT22;602;48.000;7.840;2023-11-21T02:42:30;10.60;99.90
1225;DHT22;602;48.000;7.840;2023-11-21T02:44:57;10.60;99.90
1225;DHT22;602;48.000;7.840;2023-11-21T02:47:24;10.50;99.90
1225;DHT22;602;48.000;7.840;2023-11-21T02:49:51;10.50;99.90
1225;DHT22;602;48.000;7.840;2023-11-21T02:52:18;10.50;99.90
1225;DHT22;602;48.000;7.840;2023-11-21T02:54:46;10.50;99.90
1225;DHT22;602;48.000;7.840;2023-11-21T02:57:12;10.50;99.90
1225;DHT22;602;48.000;7.840;2023-11-21T02:59:41;10.50;99.90
1225;DHT22;602;48.000;7.840;2023-11-21T03:02:08;10.50;99.90
1225;DHT22;602;48.000;7.840;2023-11-21T03:04:35;10.50;99.90
1225;DHT22;602;48.000;7.840;2023-11-21T03:07:01;10.50;99.90
1225;DHT22;602;48.000;7.840;2023-11-21T03:09:30;10.50;99.90
1225;DHT22;602;48.000;7.840;2023-11-21T03:11:57;10.50;99.90
1225;DHT22;602;48.000;7.840;2023-11-21T03:14:24;10.50;99.90
1225;DHT22;602;48.000;7.840;2023-11-21T03:16:52;10.50;99.90
1225;DHT22;602;48.000;7.840;2023-11-21T03:19:19;10.50;99.90
1225;DHT22;602;48.000;7.840;2023-11-21T03:21:46;10.60;99.90
1225;DHT22;602;48.000;7.840;2023-11-21T03:24:13;10.50;99.90
1225;DHT22;602;48.000;7.840;2023-11-21T03:26:44;10.40;99.90
1225;DHT22;602;48.000;7.840;2023-11-21T03:29:12;10.50;99.90
1225;DHT22;602;48.000;7.840;2023-11-21T03:31:39;10.50;99.90
1225;DHT22;602;48.000;7.840;2023-11-21T03:34:11;10.50;99.90
1225;DHT22;602;48.000;7.840;2023-11-21T03:36:38;10.50;99.90
1225;DHT22;602;48.000;7.840;2023-11-21T03:39:05;10.50;99.90
1225;DHT22;602;48.000;7.840;2023-11-21T03:41:32;10.50;99.90
1225;DHT22;602;48.000;7.840;2023-11-21T03:43:59;10.50;99.90
1225;DHT22;602;48.000;7.840;2023-11-21T03:46:26;10.60;99.90
1225;DHT22;602;48.000;7.840;2023-11-21T03:48:53;10.60;99.90
1225;DHT22;602;48.000;7.840;2023-11-21T03:51:22;10.60;99.90
1225;DHT22;602;48.000;7.840;2023-11-21T03:53:49;10.60;99.90
1225;DHT22;602;48.000;7.840;2023-11-21T03:56:16;10.60;99.90
1225;DHT22;602;48.000;7.840;2023-11-21T03:58:42;10.70;99.90
1225;DHT22;602;48.000;7.840;2023-11-21T04:01:09;10.60;99.90
1225;DHT22;602;48.000;7.840;2023-11-21T04:03:36;10.60;99.90
1225;DHT22;602;48.000;7.840;2023-11-21T04:06:04;10.50;99.90
1225;DHT22;602;48.000;7.840;2023-11-21T04:08:33;10.50;99.90
1225;DHT22;602;48.000;7.840;2023-11-21T04:11:00;10.50;99.90
1225;DHT22;602;48.000;7.840;2023-11-21T04:13:27;10.50;99.90
1225;DHT22;602;48.000;7.840;2023-11-21T04:15:54;10.50;99.90
1225;DHT22;602;48.000;7.840;2023-11-21T04:18:20;10.50;99.90
1225;DHT22;602;48.000;7.840;2023-11-21T04:20:48;10.40;99.90
1225;DHT22;602;48.000;7.840;2023-11-21T04:23:15;10.30;99.90
1225;DHT22;602;48.000;7.840;2023-11-21T04:25:44;10.40;99.90
1225;DHT22;602;48.000;7.840;2023-11-21T04:28:11;10.40;99.90
1225;DHT22;602;48.000;7.840;2023-11-21T04:30:38;10.50;99.90
1225;DHT22;602;48.000;7.840;2023-11-21T04:33:06;10.40;99.90
1225;DHT22;602;48.000;7.840;2023-11-21T04:35:33;10.40;99.90
1225;DHT22;602;48.000;7.840;2023-11-21T04:38:00;10.40;99.90
1225;DHT22;602;48.000;7.840;2023-11-21T04:40:26;10.40;99.90
1225;DHT22;602;48.000;7.840;2023-11-21T04:42:55;10.40;99.90
1225;DHT22;602;48.000;7.840;2023-11-21T04:45:23;10.50;99.90
1225;DHT22;602;48.000;7.840;2023-11-21T04:47:50;10.50;99.90
1225;DHT22;602;48.000;7.840;2023-11-21T04:50:18;10.50;99.90
1225;DHT22;602;48.000;7.840;2023-11-21T04:52:45;10.50;99.90
1225;DHT22;602;48.000;7.840;2023-11-21T04:55:13;10.50;99.90
1225;DHT22;602;48.000;7.840;2023-11-21T04:57:41;10.50;99.90
1225;DHT22;602;48.000;7.840;2023-11-21T05:00:10;10.50;99.90
1225;DHT22;602;48.000;7.840;2023-11-21T05:02:38;10.50;99.90
1225;DHT22;602;48.000;7.840;2023-11-21T05:05:05;10.40;99.90
1225;DHT22;602;48.000;7.840;2023-11-21T05:07:33;10.40;99.90
1225;DHT22;602;48.000;7.840;2023-11-21T05:10:01;10.40;99.90
1225;DHT22;602;48.000;7.840;2023-11-21T05:12:31;10.40;99.90
1225;DHT22;602;48.000;7.840;2023-11-21T05:19:40;10.30;99.90
1225;DHT22;602;48.000;7.840;2023-11-21T05:23:08;10.30;99.90
1225;DHT22;602;48.000;7.840;2023-11-21T05:26:04;10.30;99.90
1225;DHT22;602;48.000;7.840;2023-11-21T05:29:08;10.20;99.90
1225;DHT22;602;48.000;7.840;2023-11-21T05:31:55;10.20;99.90
1225;DHT22;602;48.000;7.840;2023-11-21T05:48:16;10.10;99.90
1225;DHT22;602;48.000;7.840;2023-11-21T05:51:05;10.10;99.90
1225;DHT22;602;48.000;7.840;2023-11-21T05:53:49;10.20;99.90
1225;DHT22;602;48.000;7.840;2023-11-21T05:56:48;10.20;99.90
1225;DHT22;602;48.000;7.840;2023-11-21T05:59:43;10.20;99.90
1225;DHT22;602;48.000;7.840;2023-11-21T06:06:08;10.20;99.90
1225;DHT22;602;48.000;7.840;2023-11-21T06:08:35;10.20;99.90
1225;DHT22;602;48.000;7.840;2023-11-21T06:11:02;10.30;99.90
1225;DHT22;602;48.000;7.840;2023-11-21T06:13:29;10.30;99.90
1225;DHT22;602;48.000;7.840;2023-11-21T06:15:56;10.40;99.90
1225;DHT22;602;48.000;7.840;2023-11-21T06:18:22;10.50;99.90
1225;DHT22;602;48.000;7.840;2023-11-21T06:20:49;10.50;99.90
1225;DHT22;602;48.000;7.840;2023-11-21T06:23:20;10.50;99.90
1225;DHT22;602;48.000;7.840;2023-11-21T06:25:46;10.60;99.90
1225;DHT22;602;48.000;7.840;2023-11-21T06:28:14;10.60;99.90
1225;DHT22;602;48.000;7.840;2023-11-21T06:30:43;10.60;99.90
1225;DHT22;602;48.000;7.840;2023-11-21T06:33:10;10.60;99.90
1225;DHT22;602;48.000;7.840;2023-11-21T06:35:37;10.50;99.90
1225;DHT22;602;48.000;7.840;2023-11-21T06:38:05;10.60;99.90
1225;DHT22;602;48.000;7.840;2023-11-21T06:40:33;10.60;99.90
1225;DHT22;602;48.000;7.840;2023-11-21T06:43:00;10.70;99.90
1225;DHT22;602;48.000;7.840;2023-11-21T06:45:27;10.60;99.90
1225;DHT22;602;48.000;7.840;2023-11-21T06:47:54;10.60;99.90
1225;DHT22;602;48.000;7.840;2023-11-21T06:50:21;10.60;99.90
1225;DHT22;602;48.000;7.840;2023-11-21T06:52:48;10.50;99.90
1225;DHT22;602;48.000;7.840;2023-11-21T06:55:15;10.50;99.90
1225;DHT22;602;48.000;7.840;2023-11-21T06:57:44;10.40;99.90
1225;DHT22;602;48.000;7.840;2023-11-21T07:00:11;10.30;99.90
1225;DHT22;602;48.000;7.840;2023-11-21T07:02:38;10.20;99.90
1225;DHT22;602;48.000;7.840;2023-11-21T07:05:05;10.20;99.90
1225;DHT22;602;48.000;7.840;2023-11-21T07:07:32;10.20;99.90
1225;DHT22;602;48.000;7.840;2023-11-21T07:10:01;10.20;99.90
1225;DHT22;602;48.000;7.840;2023-11-21T07:12:29;10.20;99.90
1225;DHT22;602;48.000;7.840;2023-11-21T07:14:58;10.20;99.90
1225;DHT22;602;48.000;7.840;2023-11-21T07:17:25;10.20;99.90
1225;DHT22;602;48.000;7.840;2023-11-21T07:19:51;10.20;99.90
1225;DHT22;602;48.000;7.840;2023-11-21T07:22:19;10.20;99.90
1225;DHT22;602;48.000;7.840;2023-11-21T07:24:48;10.30;99.90
1225;DHT22;602;48.000;7.840;2023-11-21T07:27:16;10.20;99.90
1225;DHT22;602;48.000;7.840;2023-11-21T07:29:43;10.20;99.90
1225;DHT22;602;48.000;7.840;2023-11-21T07:32:11;10.20;99.90
1225;DHT22;602;48.000;7.840;2023-11-21T07:34:39;10.30;99.90
1225;DHT22;602;48.000;7.840;2023-11-21T07:37:06;10.40;99.90
1225;DHT22;602;48.000;7.840;2023-11-21T07:39:34;10.30;99.90
1225;DHT22;602;48.000;7.840;2023-11-21T07:42:01;10.40;99.90
1225;DHT22;602;48.000;7.840;2023-11-21T07:44:28;10.40;99.90
1225;DHT22;602;48.000;7.840;2023-11-21T07:46:55;10.50;99.90
1225;DHT22;602;48.000;7.840;2023-11-21T07:49:24;10.50;99.90
1225;DHT22;602;48.000;7.840;2023-11-21T07:51:52;10.60;99.90
1225;DHT22;602;48.000;7.840;2023-11-21T07:54:19;10.60;99.90
1225;DHT22;602;48.000;7.840;2023-11-21T07:56:47;10.70;99.90
1225;DHT22;602;48.000;7.840;2023-11-21T07:59:13;10.70;99.90
1225;DHT22;602;48.000;7.840;2023-11-21T08:01:40;10.70;99.90
1225;DHT22;602;48.000;7.840;2023-11-21T08:04:08;10.80;99.90
1225;DHT22;602;48.000;7.840;2023-11-21T08:06:36;10.90;99.90
1225;DHT22;602;48.000;7.840;2023-11-21T08:09:03;10.90;99.90
1225;DHT22;602;48.000;7.840;2023-11-21T08:11:30;11.00;99.90
1225;DHT22;602;48.000;7.840;2023-11-21T08:13:58;10.90;99.90
1225;DHT22;602;48.000;7.840;2023-11-21T08:16:25;11.00;99.90
1225;DHT22;602;48.000;7.840;2023-11-21T08:18:53;11.00;99.90
1225;DHT22;602;48.000;7.840;2023-11-21T08:21:20;11.00;99.90
1225;DHT22;602;48.000;7.840;2023-11-21T08:23:50;11.00;99.90
1225;DHT22;602;48.000;7.840;2023-11-21T08:26:22;11.00;99.90
1225;DHT22;602;48.000;7.840;2023-11-21T08:28:49;11.10;99.90
1225;DHT22;602;48.000;7.840;2023-11-21T08:31:23;11.20;99.90
1225;DHT22;602;48.000;7.840;2023-11-21T08:33:50;11.20;99.90
1225;DHT22;602;48.000;7.840;2023-11-21T08:36:17;11.30;99.90
1225;DHT22;602;48.000;7.840;2023-11-21T08:38:44;11.30;99.90
1225;DHT22;602;48.000;7.840;2023-11-21T08:41:12;11.30;99.90
1225;DHT22;602;48.000;7.840;2023-11-21T08:43:40;11.30;99.90
1225;DHT22;602;48.000;7.840;2023-11-21T08:46:07;11.40;99.90
1225;DHT22;602;48.000;7.840;2023-11-21T08:48:35;11.40;99.90
1225;DHT22;602;48.000;7.840;2023-11-21T08:51:02;11.30;99.90
1225;DHT22;602;48.000;7.840;2023-11-21T08:53:30;11.30;99.90
1225;DHT22;602;48.000;7.840;2023-11-21T08:55:57;11.20;99.90
1225;DHT22;602;48.000;7.840;2023-11-21T08:58:25;11.10;99.90
1225;DHT22;602;48.000;7.840;2023-11-21T09:00:52;11.00;99.90
1225;DHT22;602;48.000;7.840;2023-11-21T09:03:19;11.00;99.90
1225;DHT22;602;48.000;7.840;2023-11-21T09:05:46;10.90;99.90
1225;DHT22;602;48.000;7.840;2023-11-21T09:08:12;10.80;99.90
1225;DHT22;602;48.000;7.840;2023-11-21T09:10:41;10.70;99.90
1225;DHT22;602;48.000;7.840;2023-11-21T09:13:12;10.70;99.90
1225;DHT22;602;48.000;7.840;2023-11-21T09:15:40;10.90;99.90
1225;DHT22;602;48.000;7.840;2023-11-21T09:18:10;11.10;99.90
1225;DHT22;602;48.000;7.840;2023-11-21T09:20:37;11.10;99.90
1225;DHT22;602;48.000;7.840;2023-11-21T09:23:04;11.20;99.90
1225;DHT22;602;48.000;7.840;2023-11-21T09:25:30;11.20;99.90
1225;DHT22;602;48.000;7.840;2023-11-21T09:27:57;11.20;99.90
1225;DHT22;602;48.000;7.840;2023-11-21T09:30:24;11.10;99.90
1225;DHT22;602;48.000;7.840;2023-11-21T09:32:52;11.10;99.90
1225;DHT22;602;48.000;7.840;2023-11-21T09:35:20;11.20;99.90
1225;DHT22;602;48.000;7.840;2023-11-21T09:37:47;11.30;99.90
1225;DHT22;602;48.000;7.840;2023-11-21T09:40:14;11.40;99.90
1225;DHT22;602;48.000;7.840;2023-11-21T09:42:48;11.40;99.90
1225;DHT22;602;48.000;7.840;2023-11-21T09:45:21;11.40;99.90
1225;DHT22;602;48.000;7.840;2023-11-21T09:47:49;11.40;99.90
1225;DHT22;602;48.000;7.840;2023-11-21T09:50:20;11.40;99.90
1225;DHT22;602;48.000;7.840;2023-11-21T09:52:57;11.50;99.90
1225;DHT22;602;48.000;7.840;2023-11-21T09:55:27;11.60;99.90
1225;DHT22;602;48.000;7.840;2023-11-21T09:57:56;11.60;99.90
1225;DHT22;602;48.000;7.840;2023-11-21T10:00:23;11.60;99.90
1225;DHT22;602;48.000;7.840;2023-11-21T10:02:52;11.60;99.90
1225;DHT22;602;48.000;7.840;2023-11-21T10:05:21;11.60;99.90
1225;DHT22;602;48.000;7.840;2023-11-21T10:07:49;11.70;99.90
1225;DHT22;602;48.000;7.840;2023-11-21T10:10:18;11.60;99.90
1225;DHT22;602;48.000;7.840;2023-11-21T10:12:49;11.60;99.90
1225;DHT22;602;48.000;7.840;2023-11-21T10:15:20;11.70;99.90
1225;DHT22;602;48.000;7.840;2023-11-21T10:17:49;11.70;99.90
1225;DHT22;602;48.000;7.840;2023-11-21T10:20:16;11.80;99.90
1225;DHT22;602;48.000;7.840;2023-11-21T10:22:44;11.80;99.90
1225;DHT22;602;48.000;7.840;2023-11-21T10:25:12;11.90;99.90
1225;DHT22;602;48.000;7.840;2023-11-21T10:27:40;11.80;99.90
1225;DHT22;602;48.000;7.840;2023-11-21T10:30:09;11.80;99.90
1225;DHT22;602;48.000;7.840;2023-11-21T10:32:37;11.80;99.90
1225;DHT22;602;48.000;7.840;2023-11-21T10:35:06;11.90;99.90
1225;DHT22;602;48.000;7.840;2023-11-21T10:37:36;11.90;99.90
1225;DHT22;602;48.000;7.840;2023-11-21T10:40:07;11.90;99.90
1225;DHT22;602;48.000;7.840;2023-11-21T10:42:37;11.90;99.90
1225;DHT22;602;48.000;7.840;2023-11-21T10:45:04;11.90;99.90
1225;DHT22;602;48.000;7.840;2023-11-21T10:47:38;11.90;99.90
1225;DHT22;602;48.000;7.840;2023-11-21T10:50:05;11.90;99.90
1225;DHT22;602;48.000;7.840;2023-11-21T10:52:36;11.90;99.90
1225;DHT22;602;48.000;7.840;2023-11-21T10:55:16;12.00;99.90
1225;DHT22;602;48.000;7.840;2023-11-21T10:57:44;12.00;99.90
1225;DHT22;602;48.000;7.840;2023-11-21T11:00:14;11.80;99.90
1225;DHT22;602;48.000;7.840;2023-11-21T11:02:41;11.50;99.90
1225;DHT22;602;48.000;7.840;2023-11-21T11:05:08;11.50;99.90
1225;DHT22;602;48.000;7.840;2023-11-21T11:07:41;11.40;99.90
1225;DHT22;602;48.000;7.840;2023-11-21T11:10:11;11.40;99.90
1225;DHT22;602;48.000;7.840;2023-11-21T11:12:40;11.50;99.90
1225;DHT22;602;48.000;7.840;2023-11-21T11:15:08;11.50;99.90
1225;DHT22;602;48.000;7.840;2023-11-21T11:17:37;11.50;99.90
1225;DHT22;602;48.000;7.840;2023-11-21T11:20:07;11.60;99.90
1225;DHT22;602;48.000;7.840;2023-11-21T11:22:40;11.60;99.90
1225;DHT22;602;48.000;7.840;2023-11-21T11:25:28;11.60;99.90
1225;DHT22;602;48.000;7.840;2023-11-21T11:28:03;11.70;99.90
1225;DHT22;602;48.000;7.840;2023-11-21T11:30:41;11.70;99.90
1225;DHT22;602;48.000;7.840;2023-11-21T11:33:17;11.60;99.90
1225;DHT22;602;48.000;7.840;2023-11-21T11:35:54;11.60;99.90
1225;DHT22;602;48.000;7.840;2023-11-21T11:38:23;11.60;99.90
1225;DHT22;602;48.000;7.840;2023-11-21T11:40:54;11.60;99.90
1225;DHT22;602;48.000;7.840;2023-11-21T11:43:27;11.60;99.90
1225;DHT22;602;48.000;7.840;2023-11-21T11:45:55;11.70;99.90
1225;DHT22;602;48.000;7.840;2023-11-21T11:48:24;11.60;99.90
1225;DHT22;602;48.000;7.840;2023-11-21T11:51:05;11.60;99.90
1225;DHT22;602;48.000;7.840;2023-11-21T11:53:39;11.60;99.90
1225;DHT22;602;48.000;7.840;2023-11-21T11:56:22;11.70;99.90
1225;DHT22;602;48.000;7.840;2023-11-21T11:58:51;11.60;99.90
1225;DHT22;602;48.000;7.840;2023-11-21T12:01:19;11.60;99.90
1225;DHT22;602;48.000;7.840;2023-11-21T12:06:47;11.60;99.90
1225;DHT22;602;48.000;7.840;2023-11-21T12:09:18;11.60;99.90
1225;DHT22;602;48.000;7.840;2023-11-21T12:11:47;11.60;99.90
1225;DHT22;602;48.000;7.840;2023-11-21T12:14:16;11.60;99.90
1225;DHT22;602;48.000;7.840;2023-11-21T12:16:43;11.50;99.90
1225;DHT22;602;48.000;7.840;2023-11-21T12:19:10;11.40;99.90
1225;DHT22;602;48.000;7.840;2023-11-21T12:21:37;11.50;99.90
1225;DHT22;602;48.000;7.840;2023-11-21T12:24:05;11.40;99.90
1225;DHT22;602;48.000;7.840;2023-11-21T12:26:34;11.40;99.90
1225;DHT22;602;48.000;7.840;2023-11-21T12:29:03;11.50;99.90
1225;DHT22;602;48.000;7.840;2023-11-21T12:31:33;11.50;99.90
1225;DHT22;602;48.000;7.840;2023-11-21T12:34:00;11.50;99.90
1225;DHT22;602;48.000;7.840;2023-11-21T12:36:27;11.50;99.90
1225;DHT22;602;48.000;7.840;2023-11-21T12:38:56;11.60;99.90
1225;DHT22;602;48.000;7.840;2023-11-21T12:41:23;11.60;99.90
1225;DHT22;602;48.000;7.840;2023-11-21T12:43:49;11.40;99.90
1225;DHT22;602;48.000;7.840;2023-11-21T12:46:18;11.50;99.90
1225;DHT22;602;48.000;7.840;2023-11-21T12:48:46;11.50;99.90
1225;DHT22;602;48.000;7.840;2023-11-21T12:51:13;11.40;99.90
1225;DHT22;602;48.000;7.840;2023-11-21T12:53:42;11.50;99.90
1225;DHT22;602;48.000;7.840;2023-11-21T12:56:10;11.40;99.90
1225;DHT22;602;48.000;7.840;2023-11-21T12:58:37;11.20;99.90
1225;DHT22;602;48.000;7.840;2023-11-21T13:01:06;11.20;99.90
1225;DHT22;602;48.000;7.840;2023-11-21T13:03:39;11.30;99.90
1225;DHT22;602;48.000;7.840;2023-11-21T13:06:07;11.40;99.90
1225;DHT22;602;48.000;7.840;2023-11-21T13:08:34;11.40;99.90
1225;DHT22;602;48.000;7.840;2023-11-21T13:11:05;11.40;99.90
1225;DHT22;602;48.000;7.840;2023-11-21T13:13:32;11.50;99.90
1225;DHT22;602;48.000;7.840;2023-11-21T13:16:00;11.50;99.90
1225;DHT22;602;48.000;7.840;2023-11-21T13:18:30;11.50;99.90
1225;DHT22;602;48.000;7.840;2023-11-21T13:21:01;11.50;99.90
1225;DHT22;602;48.000;7.840;2023-11-21T13:23:28;11.50;99.90
1225;DHT22;602;48.000;7.840;2023-11-21T13:25:56;11.50;99.90
1225;DHT22;602;48.000;7.840;2023-11-21T13:28:23;11.50;99.90
1225;DHT22;602;48.000;7.840;2023-11-21T13:30:57;11.60;99.90
1225;DHT22;602;48.000;7.840;2023-11-21T13:33:28;11.60;99.90
1225;DHT22;602;48.000;7.840;2023-11-21T13:35:56;11.70;99.90
1225;DHT22;602;48.000;7.840;2023-11-21T13:38:24;11.70;99.90
1225;DHT22;602;48.000;7.840;2023-11-21T13:40:57;11.60;99.90
1225;DHT22;602;48.000;7.840;2023-11-21T13:43:25;11.60;99.90
1225;DHT22;602;48.000;7.840;2023-11-21T13:45:54;11.50;99.90
1225;DHT22;602;48.000;7.840;2023-11-21T13:48:26;11.60;99.90
1225;DHT22;602;48.000;7.840;2023-11-21T13:50:59;11.60;99.90
1225;DHT22;602;48.000;7.840;2023-11-21T13:53:37;11.60;99.90
1225;DHT22;602;48.000;7.840;2023-11-21T13:56:05;11.50;99.90
1225;DHT22;602;48.000;7.840;2023-11-21T13:58:34;11.60;99.90
1225;DHT22;602;48.000;7.840;2023-11-21T14:01:10;11.60;99.90
1225;DHT22;602;48.000;7.840;2023-11-21T14:03:54;11.70;99.90
1225;DHT22;602;48.000;7.840;2023-11-21T14:06:26;11.80;99.90
1225;DHT22;602;48.000;7.840;2023-11-21T14:09:01;11.70;99.90
1225;DHT22;602;48.000;7.840;2023-11-21T14:11:32;11.70;99.90
1225;DHT22;602;48.000;7.840;2023-11-21T14:13:59;11.70;99.90
1225;DHT22;602;48.000;7.840;2023-11-21T14:16:27;11.70;99.90
1225;DHT22;602;48.000;7.840;2023-11-21T14:18:54;11.60;99.90
1225;DHT22;602;48.000;7.840;2023-11-21T14:21:27;11.50;99.90
1225;DHT22;602;48.000;7.840;2023-11-21T14:23:54;11.50;99.90
1225;DHT22;602;48.000;7.840;2023-11-21T14:26:22;11.50;99.90
1225;DHT22;602;48.000;7.840;2023-11-21T14:28:50;11.50;99.90
1225;DHT22;602;48.000;7.840;2023-11-21T14:31:19;11.60;99.90
1225;DHT22;602;48.000;7.840;2023-11-21T14:33:46;11.60;99.90
1225;DHT22;602;48.000;7.840;2023-11-21T14:36:13;11.60;99.90
1225;DHT22;602;48.000;7.840;2023-11-21T14:38:42;11.60;99.90
1225;DHT22;602;48.000;7.840;2023-11-21T14:41:09;11.60;99.90
1225;DHT22;602;48.000;7.840;2023-11-21T14:43:38;11.60;99.90
1225;DHT22;602;48.000;7.840;2023-11-21T14:46:05;11.60;99.90
1225;DHT22;602;48.000;7.840;2023-11-21T14:48:35;11.50;99.90
1225;DHT22;602;48.000;7.840;2023-11-21T14:51:08;11.40;99.90
1225;DHT22;602;48.000;7.840;2023-11-21T14:54:01;11.30;99.90
1225;DHT22;602;48.000;7.840;2023-11-21T14:56:32;11.30;99.90
1225;DHT22;602;48.000;7.840;2023-11-21T14:59:01;11.20;99.90
1225;DHT22;602;48.000;7.840;2023-11-21T15:01:34;11.10;99.90
1225;DHT22;602;48.000;7.840;2023-11-21T15:04:18;11.00;99.90
1225;DHT22;602;48.000;7.840;2023-11-21T15:06:57;11.00;99.90
1225;DHT22;602;48.000;7.840;2023-11-21T15:09:24;11.10;99.90
1225;DHT22;602;48.000;7.840;2023-11-21T15:12:01;11.10;99.90
1225;DHT22;602;48.000;7.840;2023-11-21T15:14:38;11.20;99.90
1225;DHT22;602;48.000;7.840;2023-11-21T15:17:05;11.30;99.90
1225;DHT22;602;48.000;7.840;2023-11-21T15:19:31;11.20;99.90
1225;DHT22;602;48.000;7.840;2023-11-21T15:21:58;11.10;99.90
1225;DHT22;602;48.000;7.840;2023-11-21T15:24:25;11.20;99.90
1225;DHT22;602;48.000;7.840;2023-11-21T15:26:52;11.20;99.90
1225;DHT22;602;48.000;7.840;2023-11-21T15:29:19;11.10;99.90
1225;DHT22;602;48.000;7.840;2023-11-21T15:31:48;11.10;99.90
1225;DHT22;602;48.000;7.840;2023-11-21T15:34:15;11.10;99.90
1225;DHT22;602;48.000;7.840;2023-11-21T15:36:42;11.10;99.90
1225;DHT22;602;48.000;7.840;2023-11-21T15:39:09;11.20;99.90
1225;DHT22;602;48.000;7.840;2023-11-21T15:41:37;11.10;99.90
1225;DHT22;602;48.000;7.840;2023-11-21T15:44:05;11.20;99.90
1225;DHT22;602;48.000;7.840;2023-11-21T15:46:35;11.20;99.90
1225;DHT22;602;48.000;7.840;2023-11-21T15:49:04;11.20;99.90
1225;DHT22;602;48.000;7.840;2023-11-21T15:51:38;11.20;99.90
1225;DHT22;602;48.000;7.840;2023-11-21T15:54:05;11.20;99.90
1225;DHT22;602;48.000;7.840;2023-11-21T15:56:33;11.20;99.90
1225;DHT22;602;48.000;7.840;2023-11-21T15:59:01;11.30;99.90
1225;DHT22;602;48.000;7.840;2023-11-21T16:01:29;11.20;99.90
1225;DHT22;602;48.000;7.840;2023-11-21T16:03:56;11.20;99.90
1225;DHT22;602;48.000;7.840;2023-11-21T16:06:27;11.20;99.90
1225;DHT22;602;48.000;7.840;2023-11-21T16:08:54;11.20;99.90
1225;DHT22;602;48.000;7.840;2023-11-21T16:11:24;11.20;99.90
1225;DHT22;602;48.000;7.840;2023-11-21T16:13:51;11.30;99.90
1225;DHT22;602;48.000;7.840;2023-11-21T16:16:21;11.20;99.90
1225;DHT22;602;48.000;7.840;2023-11-21T16:18:48;11.20;99.90
1225;DHT22;602;48.000;7.840;2023-11-21T16:21:15;11.20;99.90
1225;DHT22;602;48.000;7.840;2023-11-21T16:23:43;11.20;99.90
1225;DHT22;602;48.000;7.840;2023-11-21T16:26:10;11.20;99.90
1225;DHT22;602;48.000;7.840;2023-11-21T16:28:38;11.20;99.90
1225;DHT22;602;48.000;7.840;2023-11-21T16:31:07;11.20;99.90
1225;DHT22;602;48.000;7.840;2023-11-21T16:33:34;11.30;99.90
1225;DHT22;602;48.000;7.840;2023-11-21T16:36:01;11.10;99.90
1225;DHT22;602;48.000;7.840;2023-11-21T16:38:28;11.10;99.90
1225;DHT22;602;48.000;7.840;2023-11-21T16:40:56;11.10;99.90
1225;DHT22;602;48.000;7.840;2023-11-21T16:43:23;11.10;99.90
1225;DHT22;602;48.000;7.840;2023-11-21T16:45:50;11.10;99.90
1225;DHT22;602;48.000;7.840;2023-11-21T16:48:18;11.20;99.90
1225;DHT22;602;48.000;7.840;2023-11-21T16:50:45;11.10;99.90
1225;DHT22;602;48.000;7.840;2023-11-21T16:53:12;11.10;99.90
1225;DHT22;602;48.000;7.840;2023-11-21T16:55:39;11.00;99.90